Pagrindinis puslapis
METAR-TAF:

METAR-TAF

Oro uostai :

Haidarabadas, Indija

platuma: 17-27N, ilguma: 078-28E, Aukštis: 530 m

Dabartinis oras

Ataskaita buvo paskelbta 21 minutes, ne 02:30 UTC
Vėjas 3 kt iš Rytų
Temperatūra 23°C
Drėgmė 83%
Slėgis 1019 hPa
Matomumas: 5000 m

METAR: VOHY 130230Z 10003KT 5000 NSC 23/20 Q1019 BECMG 6000

Laikas: 08:21 (02:51 UTC)

Prognozė

Ataskaita buvo paskelbta 51 minutes, ne 02:00 UTC
Prognozė galioja nuo 13 metu 03 UTC su 13 metu 12 UTC
Vėjas 3 kt iš Rytų/Šiaurės Rytų
Matomumas: 5000 m
Mažai debesys ne aukštis 1500 ft
rūkana
Tapsmas
nuo 13 metu 04 UTC su 13 metu 06 UTC
Vėjas 10 kt iš Rytų
Matomumas: 6000 m
Išsisklaidę debesys ne aukštis 1500 ft
Išsisklaidę debesys ne aukštis 2500 ft

TAF: VOHY 130200Z 1303/1312 07003KT 5000 BR FEW015 BECMG 1304/1306 08010KT 6000 SCT015 SCT025

Orai ataskaitas ir orų prognozės (METAR, TAF).

turimą stotys yra geltonos ir raudonos taškus žemėlapyje.

Perkelti pele per norėdami pamatyti stoties vardą.

Tada spustelėkite, norėdami matyti oro stebėjimo ir prognozės.

Norėdami pakeisti žemėlapį: spustelėkite ant žalios mygtukų su juodo kryžiaus žemyn,; žalią mygtuką su brūkšneliu, jei norite nutolinti; arba žalių rodyklių gretimoms žemėlapius.


METAR-TAF: